createdAt,value
2022-09-13T00:01:56.874Z,13.63
2022-09-13T00:05:03.005Z,13.61
2022-09-13T00:08:10.338Z,13.59
2022-09-13T00:11:21.514Z,13.58
2022-09-13T00:14:27.483Z,13.57
2022-09-13T00:17:33.546Z,13.52
2022-09-13T00:20:39.824Z,13.47
2022-09-13T00:23:46.700Z,13.42
2022-09-13T00:26:52.550Z,13.34
2022-09-13T00:29:58.451Z,13.32
2022-09-13T00:33:04.865Z,13.30
2022-09-13T00:36:12.839Z,13.27
2022-09-13T00:39:19.827Z,13.24
2022-09-13T00:42:32.998Z,13.23
2022-09-13T00:45:40.350Z,13.20
2022-09-13T00:48:48.561Z,13.19
2022-09-13T00:51:59.940Z,13.17
2022-09-13T00:55:12.701Z,13.14
2022-09-13T00:58:23.715Z,13.09
2022-09-13T01:01:39.064Z,13.06
2022-09-13T01:04:45.595Z,13.02
2022-09-13T01:07:52.058Z,13.00
2022-09-13T01:11:01.994Z,12.98
2022-09-13T01:14:09.117Z,12.96
2022-09-13T01:17:15.741Z,12.94
2022-09-13T01:20:24.270Z,12.92
2022-09-13T01:23:51.185Z,12.88
2022-09-13T01:27:25.989Z,12.82
2022-09-13T01:30:37.464Z,12.77
2022-09-13T01:33:56.519Z,12.74
2022-09-13T01:37:19.093Z,12.69
2022-09-13T01:40:41.835Z,12.64
2022-09-13T01:43:57.033Z,12.61
2022-09-13T01:47:09.531Z,12.59
2022-09-13T01:50:23.722Z,12.55
2022-09-13T01:53:42.135Z,12.52
2022-09-13T01:56:56.963Z,12.49
2022-09-13T02:00:08.038Z,12.47
2022-09-13T02:03:18.479Z,12.45
2022-09-13T02:06:28.047Z,12.43
2022-09-13T02:09:38.649Z,12.40
2022-09-13T02:12:47.274Z,12.38
2022-09-13T02:15:57.485Z,12.36
2022-09-13T02:19:08.554Z,12.32
2022-09-13T02:22:17.522Z,12.27
2022-09-13T02:25:27.019Z,12.23
2022-09-13T02:28:37.902Z,12.19
2022-09-13T02:31:49.279Z,12.17
2022-09-13T02:35:01.523Z,12.15
2022-09-13T02:38:15.526Z,12.15
2022-09-13T02:41:29.986Z,12.15
2022-09-13T02:44:38.002Z,12.16
2022-09-13T02:47:53.557Z,12.16
2022-09-13T02:51:04.813Z,12.16
2022-09-13T02:54:24.659Z,12.15
2022-09-13T02:57:35.757Z,12.12
2022-09-13T03:00:42.670Z,12.10
2022-09-13T03:03:48.743Z,12.07
2022-09-13T03:06:54.814Z,12.05
2022-09-13T03:10:08.130Z,12.04
2022-09-13T03:13:34.927Z,12.03
2022-09-13T03:16:57.092Z,12.00
2022-09-13T03:20:14.450Z,11.97
2022-09-13T03:23:35.770Z,11.94
2022-09-13T03:26:52.489Z,11.92
2022-09-13T03:30:03.937Z,11.89
2022-09-13T03:33:19.890Z,11.87
2022-09-13T03:36:34.397Z,11.83
2022-09-13T03:39:48.977Z,11.78
2022-09-13T03:43:03.211Z,11.75
2022-09-13T03:46:13.639Z,11.73
2022-09-13T03:49:23.236Z,11.70
2022-09-13T03:52:30.547Z,11.67
2022-09-13T03:55:40.340Z,11.66
2022-09-13T03:58:46.882Z,11.63
2022-09-13T04:01:52.860Z,11.60
2022-09-13T04:04:58.920Z,11.56
2022-09-13T04:08:06.554Z,11.50
2022-09-13T04:11:12.807Z,11.45
2022-09-13T04:14:17.397Z,11.44
2022-09-13T04:17:23.557Z,11.41
2022-09-13T04:20:29.885Z,11.43
2022-09-13T04:23:34.433Z,11.43
2022-09-13T04:26:40.269Z,11.42
2022-09-13T04:29:46.134Z,11.43
2022-09-13T04:32:52.228Z,11.45
2022-09-13T04:36:02.705Z,11.47
2022-09-13T04:39:08.847Z,11.49
2022-09-13T04:42:14.953Z,11.49
2022-09-13T04:45:21.219Z,11.51
2022-09-13T04:48:25.689Z,11.51
2022-09-13T04:51:31.540Z,11.51
2022-09-13T04:54:38.003Z,11.54
2022-09-13T04:57:44.141Z,11.55
2022-09-13T05:00:51.616Z,11.57
2022-09-13T05:03:57.527Z,11.57
2022-09-13T05:07:03.761Z,11.58
2022-09-13T05:10:12.210Z,11.58
2022-09-13T05:13:19.625Z,11.60
2022-09-13T05:16:27.056Z,11.62
2022-09-13T05:19:32.979Z,11.65
2022-09-13T05:22:38.821Z,11.68
2022-09-13T05:25:44.687Z,11.71
2022-09-13T05:28:50.929Z,11.74
2022-09-13T05:31:55.242Z,11.78
2022-09-13T05:35:01.030Z,11.79
2022-09-13T05:38:06.899Z,11.85
2022-09-13T05:41:12.785Z,11.90
2022-09-13T05:44:18.862Z,11.96
2022-09-13T05:47:25.023Z,12.02
2022-09-13T05:50:56.733Z,12.08
2022-09-13T05:53:57.623Z,12.15
2022-09-13T05:57:03.917Z,12.21
2022-09-13T06:00:09.539Z,12.28
2022-09-13T06:03:15.569Z,12.33
2022-09-13T06:06:22.609Z,12.41
2022-09-13T06:09:28.732Z,12.49
2022-09-13T06:12:34.592Z,12.58
2022-09-13T06:15:43.308Z,12.67
2022-09-13T06:18:50.318Z,12.76
2022-09-13T06:21:56.403Z,12.85
2022-09-13T06:25:02.373Z,12.95
2022-09-13T06:28:08.483Z,13.04
2022-09-13T06:31:16.178Z,13.14
2022-09-13T06:34:22.372Z,13.23
2022-09-13T06:37:28.529Z,13.33
2022-09-13T06:40:34.764Z,13.43
2022-09-13T06:43:39.603Z,13.54
2022-09-13T06:46:45.491Z,13.63
2022-09-13T06:49:51.579Z,13.80
2022-09-13T06:52:59.126Z,13.96
2022-09-13T06:56:11.246Z,14.13
2022-09-13T06:59:17.315Z,14.33
2022-09-13T07:02:25.315Z,14.54
2022-09-13T07:05:31.572Z,14.77
2022-09-13T07:08:36.174Z,15.01
2022-09-13T07:11:43.538Z,15.24
2022-09-13T07:14:49.707Z,15.54
2022-09-13T07:17:54.178Z,15.84
2022-09-13T07:21:04.788Z,16.08
2022-09-13T07:24:11.118Z,16.38
2022-09-13T07:27:16.958Z,16.68
2022-09-13T07:30:22.829Z,16.95
2022-09-13T07:33:28.693Z,17.20
2022-09-13T07:36:36.497Z,17.44
2022-09-13T07:39:42.432Z,17.68
2022-09-13T07:42:48.306Z,17.90
2022-09-13T07:46:01.247Z,18.10
2022-09-13T07:49:07.653Z,18.30
2022-09-13T07:52:13.521Z,18.48
2022-09-13T07:55:19.631Z,18.62
2022-09-13T07:58:23.843Z,18.82
2022-09-13T08:01:31.138Z,19.02
2022-09-13T08:04:37.518Z,19.27
2022-09-13T08:07:41.964Z,19.50
2022-09-13T08:10:49.542Z,19.65
2022-09-13T08:13:56.037Z,19.83
2022-09-13T08:17:02.277Z,19.98
2022-09-13T08:20:10.508Z,20.05
2022-09-13T08:23:17.406Z,20.10
2022-09-13T08:26:23.869Z,20.22
2022-09-13T08:29:30.097Z,20.16
2022-09-13T08:32:36.170Z,19.70
2022-09-13T08:35:40.461Z,19.37
2022-09-13T08:38:50.148Z,19.14
2022-09-13T08:42:28.282Z,19.02
2022-09-13T08:45:34.349Z,19.39
2022-09-13T08:48:44.192Z,19.67
2022-09-13T08:51:52.570Z,19.89
2022-09-13T08:54:58.807Z,20.06
2022-09-13T08:58:18.144Z,19.77
2022-09-13T09:01:35.661Z,19.45
2022-09-13T09:04:47.385Z,19.30
2022-09-13T09:07:59.290Z,19.21
2022-09-13T09:11:10.242Z,19.13
2022-09-13T09:14:25.350Z,19.08
2022-09-13T09:17:36.642Z,19.04
2022-09-13T09:20:45.647Z,19.01
2022-09-13T09:23:53.821Z,19.01
2022-09-13T09:27:02.283Z,19.03
2022-09-13T09:30:14.725Z,19.05
2022-09-13T09:33:32.379Z,19.11
2022-09-13T09:36:44.846Z,19.18
2022-09-13T09:39:51.548Z,19.23
2022-09-13T09:42:58.136Z,19.27
2022-09-13T09:46:07.334Z,19.29
2022-09-13T09:49:38.694Z,19.32
2022-09-13T09:52:51.695Z,19.43
2022-09-13T09:56:01.635Z,19.56
2022-09-13T09:59:26.058Z,19.69
2022-09-13T10:02:32.809Z,19.82
2022-09-13T10:05:38.851Z,19.94
2022-09-13T10:08:44.386Z,20.04
2022-09-13T10:11:50.117Z,20.16
2022-09-13T10:15:07.369Z,20.24
2022-09-13T10:18:42.990Z,20.28
2022-09-13T10:21:44.873Z,20.34
2022-09-13T10:24:50.694Z,20.41
2022-09-13T10:28:00.548Z,20.49
2022-09-13T10:31:13.755Z,20.57
2022-09-13T10:34:25.384Z,20.66
2022-09-13T10:37:34.805Z,20.73
2022-09-13T10:40:40.916Z,20.79
2022-09-13T10:43:47.106Z,20.89
2022-09-13T10:46:53.487Z,20.98
2022-09-13T10:50:00.598Z,21.03
2022-09-13T10:53:26.460Z,21.04
2022-09-13T10:56:32.334Z,21.06
2022-09-13T10:59:36.523Z,21.08
2022-09-13T11:03:01.425Z,21.15
2022-09-13T11:06:20.938Z,21.23
2022-09-13T11:09:34.024Z,21.31
2022-09-13T11:12:48.116Z,21.37
2022-09-13T11:16:00.918Z,21.40
2022-09-13T11:19:19.338Z,21.45
2022-09-13T11:22:37.932Z,21.47
2022-09-13T11:25:57.819Z,21.47
2022-09-13T11:29:14.357Z,21.48
2022-09-13T11:32:38.601Z,21.51
2022-09-13T11:35:55.727Z,21.57
2022-09-13T11:39:09.910Z,21.65
2022-09-13T11:42:29.882Z,21.69
2022-09-13T11:45:42.901Z,21.71
2022-09-13T11:49:28.193Z,21.73
2022-09-13T11:52:48.566Z,21.74
2022-09-13T11:56:00.745Z,21.76
2022-09-13T11:59:17.321Z,21.76
2022-09-13T12:02:31.306Z,21.76
2022-09-13T12:05:42.855Z,21.80
2022-09-13T12:08:52.742Z,21.87
2022-09-13T12:12:05.192Z,21.97
2022-09-13T12:15:18.990Z,22.06
2022-09-13T12:18:28.547Z,22.11
2022-09-13T12:21:39.967Z,22.10
2022-09-13T12:24:49.521Z,22.14
2022-09-13T12:28:05.753Z,22.15
2022-09-13T12:31:19.760Z,22.16
2022-09-13T12:34:31.370Z,22.24
2022-09-13T12:38:01.989Z,22.37
2022-09-13T12:41:20.586Z,22.55
2022-09-13T12:44:43.901Z,22.71
2022-09-13T12:48:16.768Z,22.83
2022-09-13T12:51:38.162Z,22.93
2022-09-13T12:55:03.109Z,22.97
2022-09-13T12:58:24.473Z,22.90
2022-09-13T13:01:33.873Z,22.80
2022-09-13T13:04:42.015Z,22.68
2022-09-13T13:07:55.657Z,22.55
2022-09-13T13:11:08.117Z,22.42
2022-09-13T13:14:30.741Z,22.32
2022-09-13T13:17:43.806Z,22.23
2022-09-13T13:21:23.180Z,22.16
2022-09-13T13:24:49.754Z,22.08
2022-09-13T13:27:56.138Z,22.02
2022-09-13T13:31:02.343Z,21.98
2022-09-13T13:34:32.154Z,21.93
2022-09-13T13:37:39.702Z,21.87
2022-09-13T13:40:50.678Z,21.82
2022-09-13T13:43:56.658Z,21.78
2022-09-13T13:47:33.160Z,21.75
2022-09-13T13:51:15.387Z,21.69
2022-09-13T13:54:53.618Z,21.64
2022-09-13T13:58:04.779Z,21.59
2022-09-13T14:01:19.277Z,21.59
2022-09-13T14:04:45.125Z,21.65
2022-09-13T14:08:24.138Z,21.72
2022-09-13T14:11:44.039Z,21.72
2022-09-13T14:15:04.980Z,21.68
2022-09-13T14:18:34.683Z,21.61
2022-09-13T14:21:40.573Z,21.55
2022-09-13T14:24:46.645Z,21.51
2022-09-13T14:27:55.861Z,21.46
2022-09-13T14:31:02.177Z,21.41
2022-09-13T14:34:20.897Z,21.38
2022-09-13T14:37:31.363Z,21.43
2022-09-13T14:40:38.529Z,21.50
2022-09-13T14:43:45.287Z,21.55
2022-09-13T14:46:57.060Z,21.57
2022-09-13T14:50:08.655Z,21.54
2022-09-13T14:53:19.090Z,21.53
2022-09-13T14:56:34.366Z,21.52
2022-09-13T14:59:45.855Z,21.52
2022-09-13T15:02:54.319Z,21.52
2022-09-13T15:06:02.053Z,21.54
2022-09-13T15:09:28.477Z,21.56
2022-09-13T15:12:34.462Z,21.58
2022-09-13T15:15:41.816Z,21.59
2022-09-13T15:18:47.658Z,21.58
2022-09-13T15:32:49.622Z,21.15
2022-09-13T15:36:14.029Z,21.12
2022-09-13T15:39:21.686Z,21.04
2022-09-13T15:42:27.776Z,20.94
2022-09-13T15:45:33.612Z,20.85
2022-09-13T15:48:38.128Z,20.76
2022-09-13T15:51:45.736Z,20.67
2022-09-13T15:54:52.970Z,20.58
2022-09-13T15:57:58.878Z,20.47
2022-09-13T16:01:03.214Z,20.37
2022-09-13T16:04:09.641Z,20.28
2022-09-13T16:07:15.883Z,20.18
2022-09-13T16:10:24.237Z,20.08
2022-09-13T16:13:30.222Z,19.97
2022-09-13T16:16:36.146Z,19.87
2022-09-13T16:19:41.517Z,19.86
2022-09-13T16:22:47.383Z,20.28
2022-09-13T16:25:54.726Z,20.68
2022-09-13T16:29:00.660Z,20.92
2022-09-13T16:32:05.189Z,21.02
2022-09-13T16:35:13.960Z,20.67
2022-09-13T16:38:19.818Z,20.42
2022-09-13T16:41:25.718Z,20.68
2022-09-13T16:44:31.559Z,20.97
2022-09-13T16:47:37.428Z,21.14
2022-09-13T16:50:43.954Z,21.26
2022-09-13T16:53:51.074Z,21.34
2022-09-13T16:56:57.581Z,21.40
2022-09-13T17:00:07.223Z,21.36
2022-09-13T17:03:13.400Z,20.89
2022-09-13T17:06:20.903Z,20.46
2022-09-13T17:09:27.774Z,20.12
2022-09-13T17:12:34.047Z,19.94
2022-09-13T17:15:42.875Z,20.25
2022-09-13T17:18:48.937Z,20.54
2022-09-13T17:21:53.730Z,20.72
2022-09-13T17:24:59.590Z,20.80
2022-09-13T17:28:06.117Z,20.90
2022-09-13T17:31:12.133Z,20.97
2022-09-13T17:34:18.170Z,21.01
2022-09-13T17:37:24.049Z,21.04
2022-09-13T17:40:30.828Z,21.07
2022-09-13T17:43:37.210Z,21.07
2022-09-13T17:46:43.119Z,21.06
2022-09-13T17:49:47.884Z,21.06
2022-09-13T17:52:53.768Z,21.03
2022-09-13T17:55:59.629Z,21.04
2022-09-13T17:59:10.454Z,21.03
2022-09-13T18:02:16.612Z,21.01
2022-09-13T18:05:22.685Z,20.98
2022-09-13T18:08:27.048Z,20.96
2022-09-13T18:11:32.974Z,20.92
2022-09-13T18:14:39.211Z,20.90
2022-09-13T18:17:45.227Z,20.88
2022-09-13T18:20:49.435Z,20.85
2022-09-13T18:23:58.878Z,20.79
2022-09-13T18:27:05.462Z,20.78
2022-09-13T18:30:13.039Z,20.75
2022-09-13T18:33:21.167Z,20.72
2022-09-13T18:36:28.163Z,20.69
2022-09-13T18:39:34.467Z,20.66
2022-09-13T18:42:40.919Z,20.63
2022-09-13T18:45:54.316Z,20.60
2022-09-13T18:49:00.999Z,20.56
2022-09-13T18:52:07.411Z,20.54
2022-09-13T18:55:13.459Z,20.52
2022-09-13T18:58:17.661Z,20.50
2022-09-13T19:01:26.067Z,20.45
2022-09-13T19:04:33.718Z,20.43
2022-09-13T19:07:41.263Z,20.41
2022-09-13T19:10:47.244Z,20.39
2022-09-13T19:13:51.494Z,20.38
2022-09-13T19:17:00.644Z,20.35
2022-09-13T19:20:07.867Z,20.35
2022-09-13T19:23:13.719Z,20.32
2022-09-13T19:26:22.321Z,20.29
2022-09-13T19:29:28.333Z,20.26
2022-09-13T19:32:32.578Z,20.22
2022-09-13T19:35:39.019Z,20.17
2022-09-13T19:38:45.807Z,20.16
2022-09-13T19:41:51.723Z,20.13
2022-09-13T19:44:57.578Z,20.11
2022-09-13T19:51:31.899Z,20.06
2022-09-13T19:54:37.778Z,20.04
2022-09-13T19:57:45.129Z,20.03
2022-09-13T20:00:51.271Z,20.01
2022-09-13T20:03:56.110Z,19.98
2022-09-13T20:07:02.405Z,19.94
2022-09-13T20:10:09.536Z,19.94
2022-09-13T20:13:15.470Z,19.92
2022-09-13T20:16:23.722Z,19.91
2022-09-13T20:19:41.557Z,19.90
2022-09-13T20:22:50.401Z,19.90
2022-09-13T20:25:56.279Z,19.89
2022-09-13T20:29:05.515Z,19.89
2022-09-13T20:32:11.781Z,19.89
2022-09-13T20:35:17.842Z,19.88
2022-09-13T20:38:22.481Z,19.89
2022-09-13T20:41:30.142Z,19.87
2022-09-13T20:44:36.949Z,19.88
2022-09-13T20:47:42.839Z,19.89
2022-09-13T20:50:58.859Z,19.89
2022-09-13T20:54:04.978Z,19.90
2022-09-13T20:57:09.361Z,19.91
2022-09-13T21:00:16.331Z,19.90
2022-09-13T21:03:23.083Z,19.86
2022-09-13T21:06:30.984Z,19.41
2022-09-13T21:09:37.010Z,18.92
2022-09-13T21:12:41.304Z,18.55
2022-09-13T21:15:47.168Z,18.28
2022-09-13T21:18:54.503Z,18.18
2022-09-13T21:22:01.943Z,18.54
2022-09-13T21:25:09.917Z,18.89
2022-09-13T21:28:15.760Z,19.10
2022-09-13T21:31:25.271Z,19.24
2022-09-13T21:34:31.315Z,19.35
2022-09-13T21:37:37.238Z,19.45
2022-09-13T21:40:43.268Z,19.55
2022-09-13T21:43:50.098Z,19.63
2022-09-13T21:46:55.996Z,19.70
2022-09-13T21:50:02.861Z,19.68
2022-09-13T21:53:09.023Z,19.25
2022-09-13T21:56:16.550Z,18.76
2022-09-13T21:59:24.116Z,18.42
2022-09-13T22:02:30.008Z,18.27
2022-09-13T22:05:36.117Z,18.60
2022-09-13T22:08:41.901Z,18.95
2022-09-13T22:11:50.467Z,19.15
2022-09-13T22:14:56.329Z,19.30
2022-09-13T22:18:02.202Z,19.43
2022-09-13T22:21:10.966Z,19.52
2022-09-13T22:24:19.581Z,19.62
2022-09-13T22:27:25.514Z,19.68
2022-09-13T22:30:31.446Z,19.75
2022-09-13T22:33:38.226Z,19.81
2022-09-13T22:36:44.554Z,19.87
2022-09-13T22:39:50.441Z,19.79
2022-09-13T22:42:56.319Z,19.31
2022-09-13T22:46:07.419Z,18.86
2022-09-13T22:49:16.560Z,18.51
2022-09-13T22:52:22.518Z,18.24
2022-09-13T22:55:28.439Z,18.15
2022-09-13T22:58:34.981Z,18.51
2022-09-13T23:01:41.581Z,18.86
2022-09-13T23:04:47.525Z,19.09
2022-09-13T23:07:53.374Z,19.24
2022-09-13T23:11:09.138Z,19.37
2022-09-13T23:14:14.699Z,19.47
2022-09-13T23:17:20.550Z,19.54
2022-09-13T23:20:26.978Z,19.55
2022-09-13T23:23:33.435Z,19.12
2022-09-13T23:26:39.843Z,18.66
2022-09-13T23:29:47.061Z,18.35
2022-09-13T23:32:53.629Z,18.23
2022-09-13T23:36:01.594Z,18.58
2022-09-13T23:39:09.520Z,18.94
2022-09-13T23:42:15.938Z,19.15
2022-09-13T23:45:21.795Z,19.29
2022-09-13T23:48:27.719Z,19.39
2022-09-13T23:51:33.987Z,19.48
2022-09-13T23:54:39.872Z,19.54
2022-09-13T23:57:45.754Z,19.62
